Time;durP1;ratioP1;P1;durP2;ratioP2;P2;SDS_P1;SDS_P2;PMS_P1;PMS_P2;Temp;Humidity;BMP_temperature;BMP_pressure;BME280_temperature;BME280_humidity;BME280_pressure;Samples;Min_cycle;Max_cycle;Signal;HPM_P1;HPM_P2
2021/01/13 00:01:30;;;;;;;136.90;57.70;;;0.80;99.90;;;;;;4173934;28;20324;-39
2021/01/13 00:03:32;;;;;;;80.70;32.80;;;0.80;99.90;;;;;;4174281;28;20262;-39
2021/01/13 00:05:33;;;;;;;70.67;30.00;;;0.80;99.90;;;;;;4173662;28;20335;-38
2021/01/13 00:07:34;;;;;;;56.63;23.30;;;0.90;99.90;;;;;;4174722;28;20331;-41
2021/01/13 00:09:35;;;;;;;55.77;23.93;;;0.90;99.90;;;;;;4173323;28;20270;-42
2021/01/13 00:11:36;;;;;;;105.77;40.37;;;0.80;99.90;;;;;;4173990;28;21068;-47
2021/01/13 00:13:38;;;;;;;78.13;32.27;;;0.80;99.90;;;;;;4173144;28;20298;-40
2021/01/13 00:15:39;;;;;;;102.43;40.27;;;0.80;99.90;;;;;;4173868;28;20332;-44
2021/01/13 00:17:47;;;;;;;90.50;36.37;;;0.80;99.90;;;;;;4173444;28;20308;-43
2021/01/13 00:19:48;;;;;;;66.67;28.93;;;0.80;99.90;;;;;;4174091;28;20278;-42
2021/01/13 00:21:53;;;;;;;75.60;31.80;;;0.80;99.90;;;;;;4173539;28;20855;-41
2021/01/13 00:23:54;;;;;;;49.37;22.60;;;0.80;99.90;;;;;;4173554;28;20274;-40
2021/01/13 00:25:56;;;;;;;54.73;24.00;;;0.80;99.90;;;;;;4173865;28;20278;-40
2021/01/13 00:30:26;;;;;;;59.77;24.70;;;0.80;99.90;;;;;;4596660;22;20375;-43
2021/01/13 00:32:27;;;;;;;65.07;26.43;;;0.80;99.90;;;;;;4190598;28;20269;-39
2021/01/13 00:34:28;;;;;;;54.73;24.27;;;0.80;99.90;;;;;;4191286;28;20343;-41
2021/01/13 00:36:30;;;;;;;48.77;22.60;;;0.80;99.90;;;;;;4190819;28;20330;-41
2021/01/13 00:38:31;;;;;;;41.53;19.03;;;0.80;99.90;;;;;;4191295;28;20311;-41
2021/01/13 00:40:32;;;;;;;35.57;17.07;;;0.80;99.90;;;;;;4190516;28;20265;-39
2021/01/13 00:42:33;;;;;;;38.33;17.03;;;0.80;99.90;;;;;;4190100;28;20769;-44
2021/01/13 00:44:34;;;;;;;34.77;16.23;;;0.80;99.90;;;;;;4190988;28;20355;-39
2021/01/13 00:46:44;;;;;;;56.97;24.87;;;0.80;99.90;;;;;;4189695;28;20315;-39
2021/01/13 00:48:46;;;;;;;46.08;20.98;;;0.80;99.90;;;;;;4191671;28;20269;-43
2021/01/13 00:50:47;;;;;;;35.20;16.27;;;0.80;99.90;;;;;;4190338;28;20545;-39
2021/01/13 00:52:51;;;;;;;36.43;16.77;;;0.80;99.90;;;;;;4191668;28;20675;-43
2021/01/13 00:54:53;;;;;;;35.10;14.20;;;0.80;99.90;;;;;;4189443;28;20700;-40
2021/01/13 00:56:54;;;;;;;29.50;14.53;;;0.80;99.90;;;;;;4191436;28;20273;-39
2021/01/13 00:58:58;;;;;;;33.90;16.17;;;0.80;99.90;;;;;;4189510;28;20307;-39
2021/01/13 01:00:59;;;;;;;32.00;16.07;;;0.70;99.90;;;;;;4191428;28;20295;-40
2021/01/13 01:03:00;;;;;;;34.27;16.33;;;0.70;99.90;;;;;;4190302;28;20319;-38
2021/01/13 01:05:02;;;;;;;37.03;17.47;;;0.70;99.90;;;;;;4191479;28;20691;-41
2021/01/13 01:07:05;;;;;;;38.20;16.93;;;0.60;99.90;;;;;;4189864;28;20303;-40
2021/01/13 01:09:08;;;;;;;34.60;16.50;;;0.60;99.90;;;;;;4190799;28;20764;-40
2021/01/13 01:11:09;;;;;;;32.80;14.83;;;0.70;99.90;;;;;;4189982;28;20303;-38
2021/01/13 01:13:10;;;;;;;33.13;15.37;;;0.60;99.90;;;;;;4181250;28;20297;-41
2021/01/13 01:15:12;;;;;;;35.63;15.90;;;0.60;99.90;;;;;;4173625;28;20603;-43
2021/01/13 01:17:14;;;;;;;34.83;15.83;;;0.60;99.90;;;;;;4173843;28;20323;-38
2021/01/13 01:19:16;;;;;;;37.37;17.30;;;0.60;99.90;;;;;;4174381;28;20745;-42
2021/01/13 01:21:17;;;;;;;38.43;18.10;;;0.60;99.90;;;;;;4173633;28;20351;-41
2021/01/13 01:23:18;;;;;;;39.17;18.57;;;0.60;99.90;;;;;;4174160;28;20303;-38
2021/01/13 01:25:19;;;;;;;38.80;17.73;;;0.60;99.90;;;;;;4173231;28;20308;-37
2021/01/13 01:27:20;;;;;;;41.23;18.93;;;0.50;99.90;;;;;;4174588;28;20373;-39
2021/01/13 01:29:22;;;;;;;39.70;18.37;;;0.60;99.90;;;;;;4172836;28;20290;-43
2021/01/13 01:31:23;;;;;;;37.40;16.73;;;0.60;99.90;;;;;;4174690;28;20864;-42
2021/01/13 01:33:24;;;;;;;44.40;18.77;;;0.50;99.90;;;;;;4173068;28;20352;-39
2021/01/13 01:35:26;;;;;;;35.90;16.27;;;0.50;99.90;;;;;;4175537;28;20286;-40
2021/01/13 01:37:32;;;;;;;35.67;16.33;;;0.60;99.90;;;;;;4173299;28;20266;-40
2021/01/13 01:39:33;;;;;;;39.50;16.70;;;0.60;99.90;;;;;;4174475;28;20335;-38
2021/01/13 01:41:34;;;;;;;38.10;16.97;;;0.60;99.90;;;;;;4182380;28;20293;-38
2021/01/13 01:43:36;;;;;;;36.43;16.57;;;0.60;99.90;;;;;;4190936;28;20273;-42
2021/01/13 01:45:37;;;;;;;35.93;16.17;;;0.60;99.90;;;;;;4189777;28;20254;-39
2021/01/13 01:47:57;;;;;;;38.90;16.80;;;0.70;99.90;;;;;;4190508;28;20652;-39
2021/01/13 01:49:58;;;;;;;41.10;17.30;;;0.70;99.90;;;;;;4189362;28;20318;-37
2021/01/13 01:52:19;;;;;;;30.97;14.10;;;0.70;99.90;;;;;;4190095;28;20261;-41
2021/01/13 01:54:24;;;;;;;32.17;14.83;;;0.70;99.90;;;;;;4185467;28;20298;-40
2021/01/13 01:56:27;;;;;;;37.60;15.23;;;0.70;99.90;;;;;;4173801;28;20274;-40
2021/01/13 01:58:30;;;;;;;36.30;16.93;;;0.80;99.90;;;;;;4173276;28;21035;-39
2021/01/13 02:00:32;;;;;;;35.83;15.67;;;0.70;99.90;;;;;;4173326;28;20684;-40
2021/01/13 02:02:39;;;;;;;40.07;15.97;;;0.70;99.90;;;;;;4174497;28;20269;-39
2021/01/13 02:04:43;;;;;;;33.67;14.50;;;0.80;99.90;;;;;;4173349;28;20270;-38
2021/01/13 02:07:18;;;;;;;34.30;15.10;;;0.70;99.90;;;;;;4173654;28;20660;-41
2021/01/13 02:09:19;;;;;;;31.57;14.70;;;0.60;99.90;;;;;;4173740;28;20270;-41
2021/01/13 02:11:25;;;;;;;37.83;16.53;;;0.70;99.90;;;;;;4172758;28;20324;-39
2021/01/13 02:13:26;;;;;;;31.77;14.00;;;0.60;99.90;;;;;;4172906;28;20351;-38
2021/01/13 02:15:27;;;;;;;34.07;14.53;;;0.60;99.90;;;;;;4173489;28;20316;-39
2021/01/13 02:17:37;;;;;;;37.33;15.60;;;0.60;99.90;;;;;;4173225;28;20262;-38
2021/01/13 02:19:47;;;;;;;29.93;13.83;;;0.70;99.90;;;;;;4173913;28;21169;-40
2021/01/13 02:21:52;;;;;;;34.92;15.32;;;0.60;99.90;;;;;;4172681;28;20262;-39
2021/01/13 02:24:05;;;;;;;35.43;16.33;;;0.60;99.90;;;;;;4174577;28;20033;-39
2021/01/13 02:26:37;;;;;;;35.53;15.57;;;0.60;99.90;;;;;;4189542;28;20735;-43
2021/01/13 02:29:00;;;;;;;35.07;14.50;;;0.60;99.90;;;;;;4174602;28;21152;-41
2021/01/13 02:31:04;;;;;;;29.33;13.33;;;0.60;99.90;;;;;;4173242;28;20290;-39
2021/01/13 02:33:43;;;;;;;34.40;14.13;;;0.60;99.90;;;;;;4172670;28;20258;-39
2021/01/13 02:36:06;;;;;;;30.57;13.07;;;0.60;99.90;;;;;;4155570;28;20829;-43
2021/01/13 02:38:12;;;;;;;26.67;11.20;;;0.60;99.90;;;;;;4172573;28;20293;-43
2021/01/13 02:40:22;;;;;;;30.43;12.70;;;0.60;99.90;;;;;;4188904;28;20319;-40
2021/01/13 02:42:31;;;;;;;27.73;11.75;;;0.60;99.90;;;;;;4188786;28;20269;-38
2021/01/13 02:44:43;;;;;;;29.63;12.57;;;0.60;99.90;;;;;;4189838;28;20044;-40
2021/01/13 02:46:58;;;;;;;23.80;11.73;;;0.50;99.90;;;;;;4188594;28;20664;-39
2021/01/13 02:49:02;;;;;;;28.67;13.33;;;0.50;99.90;;;;;;4190029;28;20261;-39
2021/01/13 02:51:20;;;;;;;29.70;12.80;;;0.60;99.90;;;;;;4188978;28;20319;-40
2021/01/13 02:53:21;;;;;;;29.70;13.17;;;0.50;99.90;;;;;;4190559;28;20323;-39
2021/01/13 02:55:28;;;;;;;25.37;12.13;;;0.50;99.90;;;;;;4188664;28;20319;-42
2021/01/13 02:57:29;;;;;;;32.93;14.30;;;0.50;99.90;;;;;;4188427;28;20286;-39
2021/01/13 02:59:34;;;;;;;30.97;14.03;;;0.50;99.90;;;;;;4188894;28;20327;-39
2021/01/13 03:01:38;;;;;;;31.03;14.03;;;0.50;99.90;;;;;;4191206;28;20601;-44
2021/01/13 03:03:39;;;;;;;29.80;12.83;;;0.40;99.90;;;;;;4191948;28;20265;-42
2021/01/13 03:05:40;;;;;;;25.30;11.20;;;0.40;99.90;;;;;;4192313;28;20265;-40
2021/01/13 03:07:48;;;;;;;28.50;13.93;;;0.40;99.90;;;;;;4191777;28;20311;-39
2021/01/13 03:09:49;;;;;;;24.80;11.50;;;0.40;99.90;;;;;;4192014;28;20827;-43
2021/01/13 03:11:51;;;;;;;30.37;12.23;;;0.30;99.90;;;;;;4192400;28;20284;-38
2021/01/13 03:13:57;;;;;;;28.47;12.37;;;0.30;99.90;;;;;;4192170;28;20727;-41
2021/01/13 03:15:58;;;;;;;27.87;11.73;;;0.30;99.90;;;;;;4177876;28;20266;-40
2021/01/13 03:18:07;;;;;;;24.17;11.20;;;0.40;99.90;;;;;;4175103;28;20328;-39
2021/01/13 03:20:25;;;;;;;31.93;13.43;;;0.40;99.90;;;;;;4176649;28;20294;-40
2021/01/13 03:22:31;;;;;;;28.17;12.93;;;0.40;99.90;;;;;;4190489;28;20343;-41
2021/01/13 03:24:44;;;;;;;32.43;14.70;;;0.40;99.90;;;;;;4191675;28;20296;-39
2021/01/13 03:26:47;;;;;;;34.30;14.00;;;0.40;99.90;;;;;;4191504;28;20319;-41
2021/01/13 03:28:52;;;;;;;30.63;13.10;;;0.40;99.90;;;;;;4192073;28;20319;-39
2021/01/13 03:30:54;;;;;;;34.93;14.70;;;0.50;99.90;;;;;;4190626;28;20749;-42
2021/01/13 03:33:10;;;;;;;34.73;14.00;;;0.50;99.90;;;;;;4191086;28;20768;-39
2021/01/13 03:35:14;;;;;;;29.57;13.30;;;0.50;99.90;;;;;;4190256;28;20789;-41
2021/01/13 03:37:17;;;;;;;33.70;14.53;;;0.50;99.90;;;;;;4190782;28;20327;-41
2021/01/13 03:39:21;;;;;;;35.87;14.77;;;0.50;99.90;;;;;;4190914;28;20737;-40
2021/01/13 03:41:34;;;;;;;30.30;12.63;;;0.50;99.90;;;;;;4190597;28;20277;-44
2021/01/13 03:43:38;;;;;;;30.47;13.40;;;0.50;99.90;;;;;;4190422;28;20820;-40
2021/01/13 03:45:39;;;;;;;27.57;12.90;;;0.50;99.90;;;;;;4190362;28;20285;-39
2021/01/13 03:47:41;;;;;;;29.33;13.33;;;0.50;99.90;;;;;;4188657;28;20625;-42
2021/01/13 03:50:09;;;;;;;24.50;11.73;;;0.50;99.90;;;;;;4191116;28;20281;-39
2021/01/13 03:52:12;;;;;;;27.13;13.27;;;0.60;99.90;;;;;;4190097;28;20273;-40
2021/01/13 03:54:13;;;;;;;33.93;13.83;;;0.50;99.90;;;;;;4190219;28;20390;-39
2021/01/13 03:56:27;;;;;;;26.60;12.50;;;0.60;99.90;;;;;;4189570;28;20285;-42
2021/01/13 03:58:36;;;;;;;29.13;12.57;;;0.60;99.90;;;;;;4190166;28;20323;-40
2021/01/13 04:00:39;;;;;;;26.90;12.83;;;0.60;99.90;;;;;;4189804;28;20941;-40
2021/01/13 04:03:01;;;;;;;31.60;13.43;;;0.60;99.90;;;;;;4190876;28;20719;-42
2021/01/13 04:05:17;;;;;;;30.40;12.63;;;0.60;99.90;;;;;;4175404;28;20277;-39
2021/01/13 04:07:22;;;;;;;29.07;12.17;;;0.60;99.90;;;;;;4185533;28;20765;-39
2021/01/13 04:09:23;;;;;;;30.50;13.07;;;0.60;99.90;;;;;;4173178;28;20336;-41
2021/01/13 04:11:35;;;;;;;30.37;15.20;;;0.50;99.90;;;;;;4173113;28;20756;-40
2021/01/13 04:13:36;;;;;;;33.27;14.57;;;0.50;99.90;;;;;;4173834;28;20340;-38
2021/01/13 04:15:38;;;;;;;33.90;14.10;;;0.50;99.90;;;;;;4173467;28;20282;-39
2021/01/13 04:17:42;;;;;;;30.73;14.17;;;0.50;99.90;;;;;;4173275;28;20266;-39
2021/01/13 04:19:47;;;;;;;33.33;13.70;;;0.50;99.90;;;;;;4173962;28;20807;-41
2021/01/13 04:21:49;;;;;;;29.80;13.90;;;0.50;99.90;;;;;;4172988;28;20262;-38
2021/01/13 04:23:57;;;;;;;34.30;15.33;;;0.50;99.90;;;;;;4177547;28;20760;-37
2021/01/13 04:25:59;;;;;;;36.97;14.57;;;0.50;99.90;;;;;;4189748;28;20281;-40
2021/01/13 04:28:01;;;;;;;39.13;16.23;;;0.50;99.90;;;;;;4189878;28;20269;-42
2021/01/13 04:30:03;;;;;;;37.67;16.00;;;0.40;99.90;;;;;;4189331;28;20273;-38
2021/01/13 04:32:05;;;;;;;36.43;16.87;;;0.40;99.90;;;;;;4189243;28;20610;-38
2021/01/13 04:34:07;;;;;;;32.70;13.87;;;0.40;99.90;;;;;;4189240;28;20350;-38
2021/01/13 04:36:08;;;;;;;29.53;13.93;;;0.40;99.90;;;;;;4189971;28;20330;-38
2021/01/13 04:38:10;;;;;;;30.67;13.43;;;0.30;99.90;;;;;;4188819;28;20344;-38
2021/01/13 04:40:32;;;;;;;29.40;14.10;;;0.20;99.90;;;;;;4189718;28;20748;-38
2021/01/13 04:42:54;;;;;;;34.27;15.40;;;0.20;99.90;;;;;;4189310;28;20304;-39
2021/01/13 04:45:08;;;;;;;35.37;14.73;;;0.20;99.90;;;;;;4177794;28;20286;-39
2021/01/13 04:47:10;;;;;;;34.73;14.80;;;0.10;99.90;;;;;;4172959;28;20266;-38
2021/01/13 04:49:16;;;;;;;31.70;14.13;;;0.10;99.90;;;;;;4173352;28;20734;-39
2021/01/13 04:51:24;;;;;;;34.43;14.50;;;0.00;99.90;;;;;;4172738;28;20266;-38
2021/01/13 04:53:30;;;;;;;33.60;14.33;;;0.00;99.90;;;;;;4173214;28;21122;-41
2021/01/13 04:55:43;;;;;;;31.80;13.97;;;-0.10;99.90;;;;;;4172677;28;20684;-39
2021/01/13 04:58:20;;;;;;;32.43;14.83;;;-0.10;99.90;;;;;;4181054;28;20281;-39
2021/01/13 05:00:50;;;;;;;35.87;14.87;;;-0.10;99.90;;;;;;4187267;28;20319;-40
2021/01/13 05:03:36;;;;;;;33.70;15.63;;;-0.20;99.90;;;;;;4165016;28;20332;-39
2021/01/13 05:05:55;;;;;;;31.33;14.27;;;-0.20;99.90;;;;;;4172503;28;20266;-45
2021/01/13 05:08:17;;;;;;;29.93;13.23;;;-0.20;99.90;;;;;;4172488;28;20275;-39
2021/01/13 05:10:19;;;;;;;37.30;15.10;;;-0.20;99.90;;;;;;4171760;28;20332;-41
2021/01/13 05:12:26;;;;;;;36.33;16.40;;;-0.20;99.90;;;;;;4172585;28;20290;-40
2021/01/13 05:14:33;;;;;;;33.83;14.63;;;-0.20;99.90;;;;;;4172900;28;20298;-38
2021/01/13 05:16:49;;;;;;;34.77;14.57;;;-0.20;99.90;;;;;;4172309;28;20327;-41
2021/01/13 05:18:50;;;;;;;38.80;15.50;;;-0.20;99.90;;;;;;4172778;28;20860;-40
2021/01/13 05:21:00;;;;;;;34.10;15.87;;;-0.10;99.90;;;;;;4172979;28;20270;-44
2021/01/13 05:23:03;;;;;;;32.53;15.00;;;-0.10;99.90;;;;;;4171948;28;20258;-41
2021/01/13 05:25:06;;;;;;;35.10;15.53;;;-0.10;99.90;;;;;;4172544;28;20479;-39
2021/01/13 05:27:41;;;;;;;40.83;17.07;;;-0.20;99.90;;;;;;4172087;28;20603;-40
2021/01/13 05:29:49;;;;;;;41.53;18.47;;;-0.20;99.90;;;;;;4173253;28;20765;-42
2021/01/13 05:31:50;;;;;;;38.60;16.87;;;-0.20;99.90;;;;;;4171866;28;20285;-37
2021/01/13 05:33:54;;;;;;;37.70;16.27;;;-0.20;99.90;;;;;;4172454;28;20315;-38
2021/01/13 05:35:58;;;;;;;43.83;17.13;;;-0.20;99.90;;;;;;4174810;28;20262;-35
2021/01/13 05:38:25;;;;;;;38.27;17.87;;;-0.30;99.90;;;;;;4184156;28;20598;-34
2021/01/13 05:40:27;;;;;;;39.47;17.57;;;-0.30;99.90;;;;;;4177560;28;20265;-35
2021/01/13 05:42:28;;;;;;;37.33;15.97;;;-0.30;99.90;;;;;;4188530;28;20292;-35
2021/01/13 05:44:30;;;;;;;42.00;17.77;;;-0.30;99.90;;;;;;4188307;28;20697;-38
2021/01/13 05:46:58;;;;;;;33.60;15.33;;;-0.30;99.90;;;;;;4187954;28;20262;-36
2021/01/13 05:49:00;;;;;;;39.03;17.63;;;-0.30;99.90;;;;;;4188747;28;20269;-37
2021/01/13 05:51:02;;;;;;;32.47;14.73;;;-0.40;99.90;;;;;;4180083;28;20274;-36
2021/01/13 05:53:05;;;;;;;43.53;16.20;;;-0.40;99.90;;;;;;4181547;28;20258;-36
2021/01/13 05:55:07;;;;;;;34.40;16.87;;;-0.40;99.90;;;;;;4189580;28;20277;-37
2021/01/13 05:57:09;;;;;;;40.97;18.23;;;-0.30;99.90;;;;;;4187815;28;20277;-36
2021/01/13 05:59:11;;;;;;;44.40;17.63;;;-0.30;99.90;;;;;;4189260;28;20269;-36
2021/01/13 06:01:32;;;;;;;43.20;18.77;;;-0.30;99.90;;;;;;4187223;28;20265;-36
2021/01/13 06:03:33;;;;;;;;;;;-0.30;99.90;;;;;;4189337;28;20262;-38
2021/01/13 06:05:34;;;;;;;;;;;-0.30;99.90;;;;;;4188225;28;19916;-37
2021/01/13 06:07:40;;;;;;;41.63;19.00;;;-0.30;99.90;;;;;;4188666;28;19963;-43
2021/01/13 06:09:43;;;;;;;55.57;23.60;;;-0.30;99.90;;;;;;4186462;28;20273;-40
2021/01/13 06:11:46;;;;;;;54.40;24.23;;;-0.30;99.90;;;;;;4185657;28;20278;-39
2021/01/13 06:13:50;;;;;;;52.50;21.03;;;-0.30;99.90;;;;;;4185939;28;20334;-38
2021/01/13 06:16:01;;;;;;;50.53;19.53;;;-0.30;99.90;;;;;;4178733;28;20274;-45
2021/01/13 06:18:03;;;;;;;46.47;19.33;;;-0.30;99.90;;;;;;4171264;28;20255;-40
2021/01/13 06:20:05;;;;;;;50.53;19.30;;;-0.30;99.90;;;;;;4171491;28;20339;-43
2021/01/13 06:22:09;;;;;;;59.93;21.00;;;-0.40;99.90;;;;;;4179074;28;20408;-39
2021/01/13 06:24:12;;;;;;;46.60;20.03;;;-0.40;99.90;;;;;;4171956;28;20340;-40
2021/01/13 06:26:14;;;;;;;52.40;22.33;;;-0.40;99.90;;;;;;4173270;28;20266;-43
2021/01/13 06:28:24;;;;;;;54.43;22.47;;;-0.40;99.90;;;;;;4188005;28;20304;-41
2021/01/13 06:30:28;;;;;;;59.47;23.30;;;-0.40;99.90;;;;;;4188025;28;20946;-39
2021/01/13 06:32:51;;;;;;;58.73;23.80;;;-0.40;99.90;;;;;;4185273;28;20040;-38
2021/01/13 06:34:57;;;;;;;68.20;27.27;;;-0.40;99.90;;;;;;4174117;28;20355;-43
2021/01/13 06:37:01;;;;;;;60.73;24.23;;;-0.40;99.90;;;;;;4185147;28;20311;-42
2021/01/13 06:39:06;;;;;;;58.27;23.73;;;-0.40;99.90;;;;;;4190851;28;20293;-42
2021/01/13 06:41:07;;;;;;;57.43;25.20;;;-0.30;99.90;;;;;;4191372;28;20281;-52
2021/01/13 06:43:13;;;;;;;59.33;24.47;;;-0.30;99.90;;;;;;4189007;28;20331;-38
2021/01/13 06:45:30;;;;;;;55.30;25.03;;;-0.30;99.90;;;;;;4191082;28;20806;-41
2021/01/13 06:47:31;;;;;;;61.17;24.10;;;-0.20;99.90;;;;;;4189936;28;20335;-38
2021/01/13 06:49:32;;;;;;;56.00;22.70;;;-0.30;99.90;;;;;;4191264;28;20295;-42
2021/01/13 06:51:34;;;;;;;53.33;25.53;;;-0.30;99.90;;;;;;4191558;28;20828;-42
2021/01/13 06:53:37;;;;;;;62.17;27.20;;;-0.40;99.90;;;;;;4190651;28;20326;-43
2021/01/13 06:55:40;;;;;;;64.80;28.70;;;-0.30;99.90;;;;;;4191460;28;20305;-39
2021/01/13 06:57:41;;;;;;;66.73;29.63;;;-0.40;99.90;;;;;;4190035;28;20285;-38
2021/01/13 06:59:43;;;;;;;72.23;30.13;;;-0.40;99.90;;;;;;4190929;28;20273;-38
2021/01/13 07:01:55;;;;;;;77.70;30.17;;;-0.40;99.90;;;;;;4190453;28;20319;-39
2021/01/13 07:03:58;;;;;;;63.07;26.63;;;-0.40;99.90;;;;;;4191666;28;20307;-48
2021/01/13 07:06:10;;;;;;;61.10;26.27;;;-0.30;99.90;;;;;;4190243;28;20286;-41
2021/01/13 07:08:12;;;;;;;59.50;25.40;;;-0.40;99.90;;;;;;4180069;28;20775;-37
2021/01/13 07:10:15;;;;;;;62.77;25.07;;;-0.30;99.90;;;;;;4186656;28;20269;-41
2021/01/13 07:12:23;;;;;;;66.27;26.80;;;-0.40;99.90;;;;;;4191159;28;20315;-39
2021/01/13 07:14:25;;;;;;;66.73;26.10;;;-0.40;99.90;;;;;;4185617;28;21170;-39
2021/01/13 07:16:30;;;;;;;69.33;27.97;;;-0.40;99.90;;;;;;4190348;28;20615;-37
2021/01/13 07:18:33;;;;;;;74.53;27.43;;;-0.40;99.90;;;;;;4190511;28;20265;-41
2021/01/13 07:20:41;;;;;;;66.77;27.57;;;-0.40;99.90;;;;;;4189985;28;20331;-44
2021/01/13 07:22:42;;;;;;;67.47;28.93;;;-0.30;99.90;;;;;;4190975;28;20311;-40
2021/01/13 07:24:44;;;;;;;75.50;26.93;;;-0.30;99.90;;;;;;4190879;28;20656;-49
2021/01/13 07:26:46;;;;;;;72.17;27.87;;;-0.30;99.90;;;;;;4191012;28;20278;-42
2021/01/13 07:28:48;;;;;;;68.10;26.73;;;-0.30;99.90;;;;;;4190535;28;20299;-40
2021/01/13 07:30:52;;;;;;;69.13;28.10;;;-0.30;99.90;;;;;;4190734;28;20277;-43
2021/01/13 07:33:01;;;;;;;67.67;25.13;;;-0.20;99.90;;;;;;4179493;28;20339;-47
2021/01/13 07:35:07;;;;;;;61.17;24.83;;;-0.20;99.90;;;;;;4174231;28;20725;-43
2021/01/13 07:37:23;;;;;;;45.53;20.27;;;-0.30;99.90;;;;;;4174112;28;20282;-50
2021/01/13 07:39:54;;;;;;;50.40;21.87;;;-0.30;99.90;;;;;;4174312;28;20285;-37
2021/01/13 07:42:11;;;;;;;49.63;21.13;;;-0.30;99.90;;;;;;4147889;28;20827;-44
2021/01/13 07:44:42;;;;;;;41.93;18.47;;;-0.30;99.90;;;;;;4186559;28;20274;-45
2021/01/13 07:46:48;;;;;;;;;;;-0.30;99.90;;;;;;4192487;28;20331;-42
2021/01/13 07:49:17;;;;;;;43.90;18.00;;;-0.30;99.90;;;;;;4206525;28;19974;-46
2021/01/13 07:51:19;;;;;;;45.77;19.97;;;-0.20;99.90;;;;;;4179432;28;20281;-40
2021/01/13 07:53:25;;;;;;;47.60;20.70;;;-0.20;99.90;;;;;;4173442;28;20266;-43
2021/01/13 07:55:26;;;;;;;59.40;23.30;;;-0.10;99.90;;;;;;4179623;28;20350;-44
2021/01/13 07:57:41;;;;;;;51.63;21.20;;;-0.20;99.90;;;;;;4184048;28;20282;-44
2021/01/13 08:00:03;;;;;;;56.47;23.13;;;-0.20;99.90;;;;;;4187417;28;20269;-44
2021/01/13 08:02:29;;;;;;;66.83;27.63;;;-0.10;99.90;;;;;;4186418;28;20273;-46
2021/01/13 08:05:20;;;;;;;45.63;20.13;;;-0.10;99.90;;;;;;4173982;28;20332;-38
2021/01/13 08:07:31;;;;;;;;;;;0.00;99.90;;;;;;4174033;28;20282;-57
2021/01/13 08:09:50;;;;;;;55.50;22.90;;;-0.10;99.90;;;;;;4179927;28;20333;-44
2021/01/13 08:12:09;;;;;;;51.10;22.70;;;-0.10;99.90;;;;;;4188355;28;20266;-46
2021/01/13 08:14:28;;;;;;;47.77;20.80;;;-0.10;99.90;;;;;;4190258;28;20261;-38
2021/01/13 08:17:16;;;;;;;48.97;19.50;;;-0.10;99.90;;;;;;4189963;28;20351;-46
2021/01/13 08:19:40;;;;;;;61.30;24.33;;;-0.10;99.90;;;;;;4189967;28;20258;-58
2021/01/13 08:21:58;;;;;;;43.60;19.17;;;-0.10;99.90;;;;;;4184400;28;20867;-46
2021/01/13 08:24:15;;;;;;;44.60;17.67;;;-0.10;99.90;;;;;;4184947;28;20270;-50
2021/01/13 08:26:16;;;;;;;43.77;19.17;;;-0.10;99.90;;;;;;4190067;28;20269;-48
2021/01/13 08:28:20;;;;;;;46.70;20.47;;;-0.10;99.90;;;;;;4189684;28;20299;-51
2021/01/13 08:30:28;;;;;;;57.67;24.27;;;-0.20;99.90;;;;;;4190597;28;20311;-52
2021/01/13 08:32:40;;;;;;;53.90;23.63;;;-0.20;99.90;;;;;;4189428;28;20331;-47
2021/01/13 08:34:44;;;;;;;49.40;22.27;;;-0.20;99.90;;;;;;4190394;28;20293;-52
2021/01/13 08:36:53;;;;;;;59.90;23.90;;;-0.20;99.90;;;;;;4189141;28;20277;-50
2021/01/13 08:39:04;;;;;;;56.83;22.73;;;-0.20;99.90;;;;;;4200942;28;20261;-44
2021/01/13 08:41:21;;;;;;;;;;;-0.30;99.90;;;;;;4190405;28;21206;-43
2021/01/13 08:43:24;;;;;;;53.70;21.97;;;-0.30;99.90;;;;;;4187130;28;20026;-43
2021/01/13 08:45:45;;;;;;;46.97;21.43;;;-0.30;99.90;;;;;;4184358;28;20339;-43
2021/01/13 08:48:06;;;;;;;51.92;22.70;;;-0.30;99.90;;;;;;4188228;28;20281;-47
2021/01/13 08:50:14;;;;;;;59.53;24.08;;;-0.30;99.90;;;;;;4173216;28;20045;-42
2021/01/13 08:52:17;;;;;;;64.30;23.60;;;-0.30;99.90;;;;;;4172903;28;20864;-47
2021/01/13 08:54:19;;;;;;;52.60;23.17;;;-0.30;99.90;;;;;;4185226;28;20265;-49
2021/01/13 08:56:20;;;;;;;51.17;21.50;;;-0.20;99.90;;;;;;4186492;28;20350;-45
2021/01/13 08:58:33;;;;;;;60.10;24.33;;;-0.20;99.90;;;;;;4172221;28;20340;-45
2021/01/13 09:00:36;;;;;;;54.63;21.07;;;-0.20;99.90;;;;;;4172824;28;20336;-42
2021/01/13 09:02:55;;;;;;;47.23;19.77;;;-0.20;99.90;;;;;;4171971;28;20336;-48
2021/01/13 09:04:58;;;;;;;46.17;20.53;;;-0.20;99.90;;;;;;4177328;28;20655;-45
2021/01/13 09:07:01;;;;;;;47.57;19.13;;;-0.20;99.90;;;;;;4188656;28;20273;-49
2021/01/13 09:09:10;;;;;;;54.30;24.30;;;-0.10;99.90;;;;;;4190465;28;20682;-48
2021/01/13 09:11:33;;;;;;;40.23;17.43;;;-0.10;99.90;;;;;;4188908;28;21338;-48
2021/01/13 09:13:38;;;;;;;44.30;19.53;;;-0.10;99.90;;;;;;4188851;28;20281;-46
2021/01/13 09:15:39;;;;;;;42.80;20.70;;;0.00;99.90;;;;;;4184265;28;20298;-47
2021/01/13 09:17:52;;;;;;;42.07;19.97;;;-0.10;99.90;;;;;;4173142;28;20278;-40
2021/01/13 09:19:53;;;;;;;53.23;22.50;;;-0.10;99.90;;;;;;4172233;28;20307;-43
2021/01/13 09:21:59;;;;;;;45.67;19.83;;;0.00;99.90;;;;;;4172903;28;20320;-52
2021/01/13 09:24:01;;;;;;;45.00;21.50;;;0.00;99.90;;;;;;4172380;28;20672;-41
2021/01/13 09:26:05;;;;;;;40.23;19.30;;;0.00;99.90;;;;;;4172838;28;20262;-42
2021/01/13 09:28:17;;;;;;;49.37;22.10;;;0.00;99.90;;;;;;4185179;28;20334;-44
2021/01/13 09:30:24;;;;;;;51.33;19.90;;;0.00;99.90;;;;;;4189021;28;20363;-49
2021/01/13 09:32:26;;;;;;;48.33;21.47;;;0.10;99.90;;;;;;4188707;28;20343;-48
2021/01/13 09:34:31;;;;;;;49.03;20.83;;;0.10;99.90;;;;;;4189500;28;20262;-42
2021/01/13 09:36:56;;;;;;;46.40;21.57;;;0.10;99.90;;;;;;4177576;28;20820;-44
2021/01/13 09:39:14;;;;;;;38.87;17.57;;;0.00;99.90;;;;;;4189439;28;20328;-39
2021/01/13 09:41:25;;;;;;;41.10;19.03;;;0.00;99.90;;;;;;4186155;28;20266;-40
2021/01/13 09:43:26;;;;;;;44.67;18.87;;;0.00;99.90;;;;;;4172658;28;20319;-40
2021/01/13 09:45:38;;;;;;;39.63;18.13;;;0.00;99.90;;;;;;4183670;28;20732;-44
2021/01/13 09:47:39;;;;;;;41.90;17.57;;;0.00;99.90;;;;;;4189525;28;20281;-47
2021/01/13 09:49:48;;;;;;;36.47;17.50;;;0.10;99.90;;;;;;4187869;28;20311;-42
2021/01/13 09:51:49;;;;;;;40.43;17.03;;;0.00;99.90;;;;;;4189126;28;20285;-41
2021/01/13 09:53:56;;;;;;;41.70;18.57;;;0.00;99.90;;;;;;4189186;28;20304;-47
2021/01/13 09:56:10;;;;;;;46.27;20.43;;;0.10;99.90;;;;;;4189044;28;20287;-51
2021/01/13 09:58:16;;;;;;;69.37;27.57;;;0.10;99.90;;;;;;4180643;28;20335;-41
2021/01/13 10:00:19;;;;;;;51.80;23.27;;;0.10;99.90;;;;;;4186958;28;20327;-44
2021/01/13 10:02:23;;;;;;;52.07;22.87;;;0.10;99.90;;;;;;4188040;28;20330;-47
2021/01/13 10:04:24;;;;;;;61.13;25.33;;;0.10;99.90;;;;;;4188843;28;20338;-41
2021/01/13 10:06:28;;;;;;;61.90;26.60;;;0.20;99.90;;;;;;4189163;28;20269;-44
2021/01/13 10:08:30;;;;;;;95.53;37.47;;;0.20;99.90;;;;;;4177676;28;20278;-41
2021/01/13 10:10:32;;;;;;;101.83;40.73;;;0.30;99.90;;;;;;4171703;28;20274;-47
2021/01/13 10:12:49;;;;;;;50.50;21.20;;;0.30;99.90;;;;;;4171579;28;20332;-41
2021/01/13 10:15:01;;;;;;;43.47;20.07;;;0.30;99.90;;;;;;4176519;28;20277;-47
2021/01/13 10:17:03;;;;;;;39.27;17.53;;;0.30;99.90;;;;;;4187774;28;20327;-39
2021/01/13 10:19:04;;;;;;;31.20;13.40;;;0.30;99.90;;;;;;4188021;28;20344;-41
2021/01/13 10:21:06;;;;;;;29.87;14.30;;;0.40;99.90;;;;;;4188279;28;20754;-42
2021/01/13 10:23:08;;;;;;;24.63;13.43;;;0.40;99.90;;;;;;4188695;28;20273;-45
2021/01/13 10:25:10;;;;;;;20.40;10.33;;;0.40;99.90;;;;;;4187103;28;20347;-51
2021/01/13 10:27:12;;;;;;;25.63;10.43;;;0.40;99.90;;;;;;4188822;28;20273;-49
2021/01/13 10:29:23;;;;;;;12.80;7.67;;;0.40;99.90;;;;;;4178218;28;20274;-44
2021/01/13 10:31:28;;;;;;;11.80;6.47;;;0.40;99.90;;;;;;4171423;28;20324;-44
2021/01/13 10:33:44;;;;;;;13.77;6.60;;;0.30;99.90;;;;;;4170757;28;20277;-43
2021/01/13 10:35:45;;;;;;;9.40;5.27;;;0.30;99.90;;;;;;4172429;28;20717;-46
2021/01/13 10:37:52;;;;;;;10.50;5.97;;;0.30;99.90;;;;;;4171407;28;20278;-44
2021/01/13 10:40:07;;;;;;;11.33;5.93;;;0.20;99.90;;;;;;4171843;28;20285;-41
2021/01/13 10:42:09;;;;;;;9.40;4.87;;;0.20;99.90;;;;;;4171207;28;20334;-39
2021/01/13 10:44:12;;;;;;;11.57;5.00;;;0.10;99.90;;;;;;4171495;28;20270;-40
2021/01/13 10:46:13;;;;;;;10.73;5.90;;;0.10;99.90;;;;;;4185685;28;20354;-44
2021/01/13 10:48:19;;;;;;;10.37;5.00;;;0.10;99.90;;;;;;4188031;28;20418;-41
2021/01/13 10:50:27;;;;;;;13.23;5.90;;;0.20;99.90;;;;;;4187971;28;20281;-42
2021/01/13 10:52:31;;;;;;;10.97;5.37;;;0.20;99.90;;;;;;4185525;28;20323;-44
2021/01/13 10:54:35;;;;;;;8.17;4.87;;;0.20;99.90;;;;;;4170602;28;20266;-55
2021/01/13 10:56:40;;;;;;;13.67;6.37;;;0.20;99.90;;;;;;4188435;28;20282;-41